sensor_id;sensor_type;location;lat;lon;timestamp;pressure;altitude;pressure_sealevel;temperature;humidity
25658;BME280;13517;59.320;18.042;2024-02-21T00:01:42;100558.72;;;-0.50;100.00
25658;BME280;13517;59.320;18.042;2024-02-21T00:04:07;100543.09;;;-0.64;100.00
25658;BME280;13517;59.320;18.042;2024-02-21T00:06:32;100552.66;;;-0.55;100.00
25658;BME280;13517;59.320;18.042;2024-02-21T00:08:59;100551.66;;;-0.51;100.00
25658;BME280;13517;59.320;18.042;2024-02-21T00:11:24;100508.75;;;-0.72;100.00
25658;BME280;13517;59.320;18.042;2024-02-21T00:13:50;100533.97;;;-0.50;100.00
25658;BME280;13517;59.320;18.042;2024-02-21T00:16:18;100524.38;;;-0.56;100.00
25658;BME280;13517;59.320;18.042;2024-02-21T00:18:44;100560.00;;;-0.27;100.00
25658;BME280;13517;59.320;18.042;2024-02-21T00:21:09;100485.56;;;-0.62;100.00
25658;BME280;13517;59.320;18.042;2024-02-21T00:23:34;100541.66;;;-0.38;100.00
25658;BME280;13517;59.320;18.042;2024-02-21T00:26:00;100511.25;;;-0.62;100.00
25658;BME280;13517;59.320;18.042;2024-02-21T00:28:25;100543.41;;;-0.37;100.00
25658;BME280;13517;59.320;18.042;2024-02-21T00:30:51;100546.91;;;-0.36;100.00
25658;BME280;13517;59.320;18.042;2024-02-21T00:33:18;100506.50;;;-0.48;100.00
25658;BME280;13517;59.320;18.042;2024-02-21T00:35:44;100502.91;;;-0.45;100.00
25658;BME280;13517;59.320;18.042;2024-02-21T00:38:09;100504.53;;;-0.39;100.00
25658;BME280;13517;59.320;18.042;2024-02-21T00:40:35;100536.13;;;-0.27;100.00
25658;BME280;13517;59.320;18.042;2024-02-21T00:43:00;100415.50;;;-0.92;100.00
25658;BME280;13517;59.320;18.042;2024-02-21T00:45:26;100499.88;;;-0.28;100.00
25658;BME280;13517;59.320;18.042;2024-02-21T00:47:52;100523.53;;;-0.19;100.00
25658;BME280;13517;59.320;18.042;2024-02-21T00:50:17;100468.47;;;-0.48;100.00
25658;BME280;13517;59.320;18.042;2024-02-21T00:52:42;100510.16;;;-0.16;100.00
25658;BME280;13517;59.320;18.042;2024-02-21T00:55:08;100502.19;;;-0.16;100.00
25658;BME280;13517;59.320;18.042;2024-02-21T00:57:34;100476.13;;;-0.34;100.00
25658;BME280;13517;59.320;18.042;2024-02-21T01:00:00;100463.84;;;-0.40;100.00
25658;BME280;13517;59.320;18.042;2024-02-21T01:02:26;100394.69;;;-0.72;100.00
25658;BME280;13517;59.320;18.042;2024-02-21T01:04:51;100455.56;;;-0.26;100.00
25658;BME280;13517;59.320;18.042;2024-02-21T01:07:16;100479.06;;;-0.10;100.00
25658;BME280;13517;59.320;18.042;2024-02-21T01:09:42;100459.56;;;-0.09;100.00
25658;BME280;13517;59.320;18.042;2024-02-21T01:12:07;100475.22;;;0.03;100.00
25658;BME280;13517;59.320;18.042;2024-02-21T01:14:33;100468.13;;;0.04;100.00
25658;BME280;13517;59.320;18.042;2024-02-21T01:16:58;100372.22;;;-0.55;100.00
25658;BME280;13517;59.320;18.042;2024-02-21T01:19:24;100452.41;;;-0.06;100.00
25658;BME280;13517;59.320;18.042;2024-02-21T01:21:49;100445.22;;;-0.02;100.00
25658;BME280;13517;59.320;18.042;2024-02-21T01:24:14;100440.72;;;0.02;100.00
25658;BME280;13517;59.320;18.042;2024-02-21T01:26:40;100418.78;;;-0.05;100.00
25658;BME280;13517;59.320;18.042;2024-02-21T01:29:06;100417.03;;;-0.06;100.00
25658;BME280;13517;59.320;18.042;2024-02-21T01:31:31;100316.63;;;-0.60;100.00
25658;BME280;13517;59.320;18.042;2024-02-21T01:33:56;100346.47;;;-0.51;100.00
25658;BME280;13517;59.320;18.042;2024-02-21T01:36:23;100414.94;;;0.05;100.00
25658;BME280;13517;59.320;18.042;2024-02-21T01:38:48;100425.66;;;0.02;100.00
25658;BME280;13517;59.320;18.042;2024-02-21T01:41:14;100412.34;;;0.04;100.00
25658;BME280;13517;59.320;18.042;2024-02-21T01:43:39;100298.19;;;-0.66;100.00
25658;BME280;13517;59.320;18.042;2024-02-21T01:46:04;100313.78;;;-0.53;100.00
25658;BME280;13517;59.320;18.042;2024-02-21T01:48:30;100394.00;;;-0.07;100.00
25658;BME280;13517;59.320;18.042;2024-02-21T01:50:56;100410.59;;;0.03;100.00
25658;BME280;13517;59.320;18.042;2024-02-21T01:53:30;100266.78;;;-0.83;100.00
25658;BME280;13517;59.320;18.042;2024-02-21T01:55:56;100358.03;;;-0.19;100.00
25658;BME280;13517;59.320;18.042;2024-02-21T01:58:22;100377.22;;;-0.08;100.00
25658;BME280;13517;59.320;18.042;2024-02-21T02:00:50;100358.69;;;-0.11;100.00
25658;BME280;13517;59.320;18.042;2024-02-21T02:03:15;100360.25;;;-0.02;100.00
25658;BME280;13517;59.320;18.042;2024-02-21T02:05:48;100326.97;;;-0.16;100.00
25658;BME280;13517;59.320;18.042;2024-02-21T02:08:23;100358.25;;;0.06;100.00
25658;BME280;13517;59.320;18.042;2024-02-21T02:10:49;100360.03;;;0.07;100.00
25658;BME280;13517;59.320;18.042;2024-02-21T02:13:15;100359.28;;;0.02;100.00
25658;BME280;13517;59.320;18.042;2024-02-21T02:15:45;100348.38;;;0.11;100.00
25658;BME280;13517;59.320;18.042;2024-02-21T02:18:11;100200.28;;;-0.75;100.00
25658;BME280;13517;59.320;18.042;2024-02-21T02:20:37;100342.09;;;0.16;100.00
25658;BME280;13517;59.320;18.042;2024-02-21T02:23:25;100328.94;;;0.11;100.00
25658;BME280;13517;59.320;18.042;2024-02-21T02:25:51;100271.22;;;-0.16;100.00
25658;BME280;13517;59.320;18.042;2024-02-21T02:28:20;100314.97;;;0.03;100.00
25658;BME280;13517;59.320;18.042;2024-02-21T02:30:46;100333.22;;;0.15;100.00
25658;BME280;13517;59.320;18.042;2024-02-21T02:33:11;100247.84;;;-0.34;100.00
25658;BME280;13517;59.320;18.042;2024-02-21T02:35:37;100182.19;;;-0.61;100.00
25658;BME280;13517;59.320;18.042;2024-02-21T02:38:03;100314.75;;;0.12;100.00
25658;BME280;13517;59.320;18.042;2024-02-21T02:40:29;100342.56;;;0.30;100.00
25658;BME280;13517;59.320;18.042;2024-02-21T02:42:55;100346.16;;;0.29;100.00
25658;BME280;13517;59.320;18.042;2024-02-21T02:45:22;100314.63;;;0.15;100.00
25658;BME280;13517;59.320;18.042;2024-02-21T02:47:48;100318.72;;;0.27;100.00
25658;BME280;13517;59.320;18.042;2024-02-21T02:50:14;100263.00;;;-0.06;100.00
25658;BME280;13517;59.320;18.042;2024-02-21T02:52:39;100307.38;;;0.22;100.00
25658;BME280;13517;59.320;18.042;2024-02-21T02:55:05;100289.13;;;0.09;100.00
25658;BME280;13517;59.320;18.042;2024-02-21T02:57:31;100311.69;;;0.26;100.00
25658;BME280;13517;59.320;18.042;2024-02-21T02:59:57;100310.72;;;0.29;100.00
25658;BME280;13517;59.320;18.042;2024-02-21T03:02:22;100301.03;;;0.28;100.00
25658;BME280;13517;59.320;18.042;2024-02-21T03:04:48;100301.88;;;0.28;100.00
25658;BME280;13517;59.320;18.042;2024-02-21T03:07:14;100215.53;;;-0.17;100.00
25658;BME280;13517;59.320;18.042;2024-02-21T03:09:40;100300.00;;;0.32;100.00
25658;BME280;13517;59.320;18.042;2024-02-21T03:12:08;100305.06;;;0.41;100.00
25658;BME280;13517;59.320;18.042;2024-02-21T03:14:33;100310.09;;;0.50;100.00
25658;BME280;13517;59.320;18.042;2024-02-21T03:16:59;100294.97;;;0.52;100.00
25658;BME280;13517;59.320;18.042;2024-02-21T03:19:25;100260.97;;;0.34;100.00
25658;BME280;13517;59.320;18.042;2024-02-21T03:21:51;100233.19;;;0.16;100.00
25658;BME280;13517;59.320;18.042;2024-02-21T03:24:18;100288.06;;;0.47;100.00
25658;BME280;13517;59.320;18.042;2024-02-21T03:26:43;100273.78;;;0.51;100.00
25658;BME280;13517;59.320;18.042;2024-02-21T03:29:10;100228.41;;;0.27;100.00
25658;BME280;13517;59.320;18.042;2024-02-21T03:31:36;100192.59;;;0.10;100.00
25658;BME280;13517;59.320;18.042;2024-02-21T03:34:02;100251.03;;;0.40;100.00
25658;BME280;13517;59.320;18.042;2024-02-21T03:36:27;100156.88;;;-0.09;100.00
25658;BME280;13517;59.320;18.042;2024-02-21T03:38:54;100264.69;;;0.58;100.00
25658;BME280;13517;59.320;18.042;2024-02-21T03:41:20;100252.31;;;0.57;100.00
25658;BME280;13517;59.320;18.042;2024-02-21T03:43:45;100225.22;;;0.44;100.00
25658;BME280;13517;59.320;18.042;2024-02-21T03:46:10;100225.22;;;0.44;100.00
25658;BME280;13517;59.320;18.042;2024-02-21T03:48:36;100211.34;;;0.34;100.00
25658;BME280;13517;59.320;18.042;2024-02-21T03:51:02;100185.88;;;0.27;100.00
25658;BME280;13517;59.320;18.042;2024-02-21T03:53:28;100200.84;;;0.31;100.00
25658;BME280;13517;59.320;18.042;2024-02-21T03:55:53;100236.38;;;0.57;100.00
25658;BME280;13517;59.320;18.042;2024-02-21T03:58:20;100144.81;;;0.09;100.00
25658;BME280;13517;59.320;18.042;2024-02-21T04:00:45;100187.22;;;0.42;100.00
25658;BME280;13517;59.320;18.042;2024-02-21T04:03:11;100224.66;;;0.63;100.00
25658;BME280;13517;59.320;18.042;2024-02-21T04:05:36;100242.97;;;0.72;100.00
25658;BME280;13517;59.320;18.042;2024-02-21T04:08:04;100223.59;;;0.68;100.00
25658;BME280;13517;59.320;18.042;2024-02-21T04:10:30;100212.97;;;0.68;100.00
25658;BME280;13517;59.320;18.042;2024-02-21T04:12:55;100201.31;;;0.73;100.00
25658;BME280;13517;59.320;18.042;2024-02-21T04:15:21;100143.88;;;0.40;100.00
25658;BME280;13517;59.320;18.042;2024-02-21T04:17:46;100204.69;;;0.78;100.00
25658;BME280;13517;59.320;18.042;2024-02-21T04:20:16;100203.88;;;0.76;100.00
25658;BME280;13517;59.320;18.042;2024-02-21T04:22:44;100202.31;;;0.68;100.00
25658;BME280;13517;59.320;18.042;2024-02-21T04:25:10;100142.81;;;0.46;100.00
25658;BME280;13517;59.320;18.042;2024-02-21T04:27:37;100205.75;;;0.72;100.00
25658;BME280;13517;59.320;18.042;2024-02-21T04:30:03;100197.53;;;0.80;100.00
25658;BME280;13517;59.320;18.042;2024-02-21T04:32:29;100169.78;;;0.62;100.00
25658;BME280;13517;59.320;18.042;2024-02-21T04:34:54;100175.44;;;0.78;100.00
25658;BME280;13517;59.320;18.042;2024-02-21T04:37:20;100166.63;;;0.76;100.00
25658;BME280;13517;59.320;18.042;2024-02-21T04:39:45;100143.13;;;0.63;100.00
25658;BME280;13517;59.320;18.042;2024-02-21T04:42:11;100172.31;;;0.92;100.00
25658;BME280;13517;59.320;18.042;2024-02-21T04:44:37;100142.66;;;0.77;100.00
25658;BME280;13517;59.320;18.042;2024-02-21T04:47:03;100169.50;;;0.97;100.00
25658;BME280;13517;59.320;18.042;2024-02-21T04:49:29;100106.06;;;0.59;100.00
25658;BME280;13517;59.320;18.042;2024-02-21T04:51:54;100175.53;;;1.02;100.00
25658;BME280;13517;59.320;18.042;2024-02-21T04:54:20;100152.56;;;0.99;100.00
25658;BME280;13517;59.320;18.042;2024-02-21T04:56:45;100111.69;;;0.76;100.00
25658;BME280;13517;59.320;18.042;2024-02-21T04:59:10;100133.41;;;0.89;100.00
25658;BME280;13517;59.320;18.042;2024-02-21T05:01:36;100130.75;;;0.89;100.00
25658;BME280;13517;59.320;18.042;2024-02-21T05:04:01;100040.13;;;0.43;100.00
25658;BME280;13517;59.320;18.042;2024-02-21T05:06:27;100134.72;;;1.03;100.00
25658;BME280;13517;59.320;18.042;2024-02-21T05:08:53;100129.66;;;0.95;100.00
25658;BME280;13517;59.320;18.042;2024-02-21T05:11:21;100075.53;;;0.71;100.00
25658;BME280;13517;59.320;18.042;2024-02-21T05:13:46;100111.03;;;0.95;100.00
25658;BME280;13517;59.320;18.042;2024-02-21T05:16:12;100038.25;;;0.47;100.00
25658;BME280;13517;59.320;18.042;2024-02-21T05:18:37;100024.03;;;0.48;100.00
25658;BME280;13517;59.320;18.042;2024-02-21T05:21:03;100140.69;;;1.09;100.00
25658;BME280;13517;59.320;18.042;2024-02-21T05:23:28;100045.81;;;0.59;100.00
25658;BME280;13517;59.320;18.042;2024-02-21T05:25:54;100007.31;;;0.44;100.00
25658;BME280;13517;59.320;18.042;2024-02-21T05:28:19;100058.69;;;0.72;100.00
25658;BME280;13517;59.320;18.042;2024-02-21T05:30:45;100107.03;;;1.08;100.00
25658;BME280;13517;59.320;18.042;2024-02-21T05:33:10;100097.53;;;1.01;100.00
25658;BME280;13517;59.320;18.042;2024-02-21T05:35:36;100086.88;;;1.01;100.00
25658;BME280;13517;59.320;18.042;2024-02-21T05:38:02;100103.19;;;1.17;100.00
25658;BME280;13517;59.320;18.042;2024-02-21T05:40:31;100064.81;;;0.99;100.00
25658;BME280;13517;59.320;18.042;2024-02-21T05:42:57;100092.53;;;1.17;100.00
25658;BME280;13517;59.320;18.042;2024-02-21T05:45:23;100091.53;;;1.21;100.00
25658;BME280;13517;59.320;18.042;2024-02-21T05:47:48;100078.44;;;1.15;100.00
25658;BME280;13517;59.320;18.042;2024-02-21T05:50:13;100078.84;;;1.28;100.00
25658;BME280;13517;59.320;18.042;2024-02-21T05:52:39;100062.50;;;1.14;100.00
25658;BME280;13517;59.320;18.042;2024-02-21T05:55:06;99980.16;;;0.61;100.00
25658;BME280;13517;59.320;18.042;2024-02-21T05:57:32;100066.59;;;1.24;100.00
25658;BME280;13517;59.320;18.042;2024-02-21T05:59:57;100017.09;;;0.94;100.00
25658;BME280;13517;59.320;18.042;2024-02-21T06:02:22;100072.41;;;1.34;100.00
25658;BME280;13517;59.320;18.042;2024-02-21T06:04:48;99973.50;;;0.75;100.00
25658;BME280;13517;59.320;18.042;2024-02-21T06:07:13;100043.50;;;1.25;100.00
25658;BME280;13517;59.320;18.042;2024-02-21T06:09:39;99960.38;;;0.70;100.00
25658;BME280;13517;59.320;18.042;2024-02-21T06:12:04;100039.91;;;1.26;100.00
25658;BME280;13517;59.320;18.042;2024-02-21T06:14:30;100072.19;;;1.40;100.00
25658;BME280;13517;59.320;18.042;2024-02-21T06:16:55;99982.88;;;0.85;100.00
25658;BME280;13517;59.320;18.042;2024-02-21T06:19:21;100063.41;;;1.38;100.00
25658;BME280;13517;59.320;18.042;2024-02-21T06:21:46;100036.66;;;1.17;100.00
25658;BME280;13517;59.320;18.042;2024-02-21T06:24:12;100069.34;;;1.45;100.00
25658;BME280;13517;59.320;18.042;2024-02-21T06:26:38;100039.84;;;1.27;100.00
25658;BME280;13517;59.320;18.042;2024-02-21T06:29:05;100062.13;;;1.48;100.00
25658;BME280;13517;59.320;18.042;2024-02-21T06:31:31;100041.22;;;1.38;100.00
25658;BME280;13517;59.320;18.042;2024-02-21T06:33:57;100064.47;;;1.58;100.00
25658;BME280;13517;59.320;18.042;2024-02-21T06:36:22;100029.63;;;1.40;100.00
25658;BME280;13517;59.320;18.042;2024-02-21T06:38:48;100029.63;;;1.40;100.00
25658;BME280;13517;59.320;18.042;2024-02-21T06:41:17;100055.59;;;1.57;100.00
25658;BME280;13517;59.320;18.042;2024-02-21T06:43:46;100045.25;;;1.49;100.00
25658;BME280;13517;59.320;18.042;2024-02-21T06:46:12;100042.31;;;1.56;100.00
25658;BME280;13517;59.320;18.042;2024-02-21T06:48:47;100043.16;;;1.58;100.00
25658;BME280;13517;59.320;18.042;2024-02-21T06:51:12;100000.41;;;1.39;100.00
25658;BME280;13517;59.320;18.042;2024-02-21T06:53:38;100008.00;;;1.49;100.00
25658;BME280;13517;59.320;18.042;2024-02-21T06:56:03;100040.13;;;1.67;100.00
25658;BME280;13517;59.320;18.042;2024-02-21T06:58:29;100031.34;;;1.65;100.00
25658;BME280;13517;59.320;18.042;2024-02-21T07:00:54;99989.50;;;1.45;100.00
25658;BME280;13517;59.320;18.042;2024-02-21T07:03:19;100009.34;;;1.60;100.00
25658;BME280;13517;59.320;18.042;2024-02-21T07:05:45;99998.50;;;1.65;100.00
25658;BME280;13517;59.320;18.042;2024-02-21T07:08:10;99984.59;;;1.58;100.00
25658;BME280;13517;59.320;18.042;2024-02-21T07:10:36;100006.03;;;1.77;100.00
25658;BME280;13517;59.320;18.042;2024-02-21T07:13:01;99962.59;;;1.53;100.00
25658;BME280;13517;59.320;18.042;2024-02-21T07:15:26;99996.16;;;1.79;100.00
25658;BME280;13517;59.320;18.042;2024-02-21T07:17:53;99988.25;;;1.77;100.00
25658;BME280;13517;59.320;18.042;2024-02-21T07:20:19;99985.59;;;1.77;100.00
25658;BME280;13517;59.320;18.042;2024-02-21T07:22:44;99967.63;;;1.83;100.00
25658;BME280;13517;59.320;18.042;2024-02-21T07:25:10;99980.59;;;1.92;100.00
25658;BME280;13517;59.320;18.042;2024-02-21T07:27:35;99984.72;;;1.99;100.00
25658;BME280;13517;59.320;18.042;2024-02-21T07:30:00;99930.72;;;1.73;100.00
25658;BME280;13517;59.320;18.042;2024-02-21T07:32:26;99967.88;;;1.99;100.00
25658;BME280;13517;59.320;18.042;2024-02-21T07:34:51;99970.59;;;1.97;100.00
25658;BME280;13517;59.320;18.042;2024-02-21T07:37:16;99965.06;;;2.02;100.00
25658;BME280;13517;59.320;18.042;2024-02-21T07:39:42;99921.75;;;1.76;100.00
25658;BME280;13517;59.320;18.042;2024-02-21T07:42:07;99982.59;;;2.08;100.00
25658;BME280;13517;59.320;18.042;2024-02-21T07:44:33;99977.13;;;2.11;100.00
25658;BME280;13517;59.320;18.042;2024-02-21T07:46:59;99943.34;;;1.90;100.00
25658;BME280;13517;59.320;18.042;2024-02-21T07:49:25;99970.97;;;2.10;100.00
25658;BME280;13517;59.320;18.042;2024-02-21T07:51:50;99970.72;;;2.16;100.00
25658;BME280;13517;59.320;18.042;2024-02-21T07:54:17;99967.84;;;2.21;100.00
25658;BME280;13517;59.320;18.042;2024-02-21T07:56:42;99986.88;;;2.33;100.00
25658;BME280;13517;59.320;18.042;2024-02-21T07:59:08;99969.06;;;2.35;100.00
25658;BME280;13517;59.320;18.042;2024-02-21T08:01:33;99957.72;;;2.29;100.00
25658;BME280;13517;59.320;18.042;2024-02-21T08:03:59;99939.47;;;2.20;100.00
25658;BME280;13517;59.320;18.042;2024-02-21T08:06:24;99981.91;;;2.45;100.00
25658;BME280;13517;59.320;18.042;2024-02-21T08:08:50;99985.63;;;2.41;100.00
25658;BME280;13517;59.320;18.042;2024-02-21T08:11:15;99980.00;;;2.49;100.00
25658;BME280;13517;59.320;18.042;2024-02-21T08:13:40;99958.25;;;2.38;100.00
25658;BME280;13517;59.320;18.042;2024-02-21T08:16:06;99975.44;;;2.51;100.00
25658;BME280;13517;59.320;18.042;2024-02-21T08:18:31;99963.16;;;2.47;100.00
25658;BME280;13517;59.320;18.042;2024-02-21T08:20:59;99959.59;;;2.48;100.00
25658;BME280;13517;59.320;18.042;2024-02-21T08:23:24;99932.19;;;2.24;100.00
25658;BME280;13517;59.320;18.042;2024-02-21T08:25:50;99949.31;;;2.39;100.00
25658;BME280;13517;59.320;18.042;2024-02-21T08:28:15;99976.91;;;2.58;100.00
25658;BME280;13517;59.320;18.042;2024-02-21T08:30:41;99973.31;;;2.59;100.00
25658;BME280;13517;59.320;18.042;2024-02-21T08:33:12;99965.25;;;2.61;100.00
25658;BME280;13517;59.320;18.042;2024-02-21T08:35:38;99964.31;;;2.62;100.00
25658;BME280;13517;59.320;18.042;2024-02-21T08:38:03;99966.72;;;2.68;100.00
25658;BME280;13517;59.320;18.042;2024-02-21T08:40:29;99962.31;;;2.67;100.00
25658;BME280;13517;59.320;18.042;2024-02-21T08:42:54;99977.84;;;2.78;100.00
25658;BME280;13517;59.320;18.042;2024-02-21T08:45:19;99968.75;;;2.82;100.00
25658;BME280;13517;59.320;18.042;2024-02-21T08:47:45;99913.91;;;2.56;100.00
25658;BME280;13517;59.320;18.042;2024-02-21T08:50:10;99948.22;;;2.84;100.00
25658;BME280;13517;59.320;18.042;2024-02-21T08:52:36;99911.03;;;2.61;100.00
25658;BME280;13517;59.320;18.042;2024-02-21T08:55:01;99942.63;;;2.91;100.00
25658;BME280;13517;59.320;18.042;2024-02-21T08:57:27;99964.31;;;3.02;100.00
25658;BME280;13517;59.320;18.042;2024-02-21T08:59:53;99939.78;;;2.94;100.00
25658;BME280;13517;59.320;18.042;2024-02-21T09:02:18;99925.66;;;2.92;100.00
25658;BME280;13517;59.320;18.042;2024-02-21T09:04:44;99886.09;;;2.62;100.00
25658;BME280;13517;59.320;18.042;2024-02-21T09:07:10;99927.47;;;2.91;100.00
25658;BME280;13517;59.320;18.042;2024-02-21T09:09:35;99912.44;;;2.89;100.00
25658;BME280;13517;59.320;18.042;2024-02-21T09:12:04;99896.66;;;2.84;100.00
25658;BME280;13517;59.320;18.042;2024-02-21T09:14:34;99928.28;;;3.12;100.00
25658;BME280;13517;59.320;18.042;2024-02-21T09:17:00;99927.97;;;3.19;100.00
25658;BME280;13517;59.320;18.042;2024-02-21T09:19:25;99890.56;;;3.01;100.00
25658;BME280;13517;59.320;18.042;2024-02-21T09:21:50;99930.28;;;3.26;100.00
25658;BME280;13517;59.320;18.042;2024-02-21T09:24:17;99916.59;;;3.34;100.00
25658;BME280;13517;59.320;18.042;2024-02-21T09:26:42;99907.56;;;3.37;100.00
25658;BME280;13517;59.320;18.042;2024-02-21T09:29:08;99903.66;;;3.44;100.00
25658;BME280;13517;59.320;18.042;2024-02-21T09:31:33;99850.06;;;3.10;100.00
25658;BME280;13517;59.320;18.042;2024-02-21T09:33:58;99904.69;;;3.42;100.00
25658;BME280;13517;59.320;18.042;2024-02-21T09:36:24;99834.44;;;3.03;100.00
25658;BME280;13517;59.320;18.042;2024-02-21T09:38:49;99888.50;;;3.45;100.00
25658;BME280;13517;59.320;18.042;2024-02-21T09:41:16;99908.81;;;3.66;100.00
25658;BME280;13517;59.320;18.042;2024-02-21T09:43:43;99876.28;;;3.58;100.00
25658;BME280;13517;59.320;18.042;2024-02-21T09:46:17;99889.97;;;3.70;100.00
25658;BME280;13517;59.320;18.042;2024-02-21T09:51:30;99862.56;;;3.66;100.00
25658;BME280;13517;59.320;18.042;2024-02-21T09:53:57;99888.34;;;4.02;100.00
25658;BME280;13517;59.320;18.042;2024-02-21T09:56:23;99902.56;;;4.20;100.00
25658;BME280;13517;59.320;18.042;2024-02-21T09:58:49;99898.00;;;4.22;100.00
25658;BME280;13517;59.320;18.042;2024-02-21T10:01:14;99887.25;;;4.24;100.00
25658;BME280;13517;59.320;18.042;2024-02-21T10:03:41;99888.91;;;4.27;100.00
25658;BME280;13517;59.320;18.042;2024-02-21T10:06:08;99862.22;;;4.07;100.00
25658;BME280;13517;59.320;18.042;2024-02-21T10:08:34;99899.59;;;4.27;100.00
25658;BME280;13517;59.320;18.042;2024-02-21T10:10:59;99903.53;;;4.19;100.00
25658;BME280;13517;59.320;18.042;2024-02-21T10:13:28;99889.03;;;4.23;100.00
25658;BME280;13517;59.320;18.042;2024-02-21T10:16:04;99878.13;;;4.11;100.00
25658;BME280;13517;59.320;18.042;2024-02-21T10:18:29;99864.84;;;4.09;100.00
25658;BME280;13517;59.320;18.042;2024-02-21T10:21:05;99875.59;;;4.25;100.00
25658;BME280;13517;59.320;18.042;2024-02-21T10:23:48;99865.16;;;4.20;100.00
25658;BME280;13517;59.320;18.042;2024-02-21T10:26:17;99872.94;;;4.25;100.00
25658;BME280;13517;59.320;18.042;2024-02-21T10:28:43;99876.47;;;4.26;100.00
25658;BME280;13517;59.320;18.042;2024-02-21T10:31:20;99882.91;;;4.21;100.00
25658;BME280;13517;59.320;18.042;2024-02-21T10:33:53;99878.84;;;4.14;100.00
25658;BME280;13517;59.320;18.042;2024-02-21T10:36:19;99880.16;;;4.05;100.00
25658;BME280;13517;59.320;18.042;2024-02-21T10:38:44;99820.22;;;3.76;100.00
25658;BME280;13517;59.320;18.042;2024-02-21T10:41:15;99837.19;;;3.92;100.00
25658;BME280;13517;59.320;18.042;2024-02-21T10:43:49;99873.66;;;4.11;100.00
25658;BME280;13517;59.320;18.042;2024-02-21T10:46:18;99865.47;;;4.14;100.00
25658;BME280;13517;59.320;18.042;2024-02-21T10:48:45;99865.28;;;4.17;100.00
25658;BME280;13517;59.320;18.042;2024-02-21T10:51:15;99862.88;;;4.13;100.00
25658;BME280;13517;59.320;18.042;2024-02-21T10:53:54;99863.09;;;4.08;100.00
25658;BME280;13517;59.320;18.042;2024-02-21T10:56:31;99845.59;;;4.02;100.00
25658;BME280;13517;59.320;18.042;2024-02-21T10:59:01;99846.28;;;4.06;100.00
25658;BME280;13517;59.320;18.042;2024-02-21T11:01:28;99860.38;;;4.09;100.00
25658;BME280;13517;59.320;18.042;2024-02-21T11:03:58;99853.38;;;4.07;100.00
25658;BME280;13517;59.320;18.042;2024-02-21T11:06:24;99839.44;;;4.00;100.00
25658;BME280;13517;59.320;18.042;2024-02-21T11:09:02;99849.09;;;4.03;100.00
25658;BME280;13517;59.320;18.042;2024-02-21T11:11:28;99826.81;;;3.86;100.00
25658;BME280;13517;59.320;18.042;2024-02-21T11:14:07;99845.66;;;4.01;100.00
25658;BME280;13517;59.320;18.042;2024-02-21T11:16:39;99837.00;;;3.95;100.00
25658;BME280;13517;59.320;18.042;2024-02-21T11:21:35;99846.28;;;4.06;100.00
25658;BME280;13517;59.320;18.042;2024-02-21T11:24:01;99843.44;;;4.09;100.00
25658;BME280;13517;59.320;18.042;2024-02-21T11:26:28;99823.75;;;3.94;100.00
25658;BME280;13517;59.320;18.042;2024-02-21T11:29:01;99835.69;;;4.04;100.00
25658;BME280;13517;59.320;18.042;2024-02-21T11:31:41;99807.94;;;3.89;100.00
25658;BME280;13517;59.320;18.042;2024-02-21T11:34:10;99847.06;;;4.08;100.00
25658;BME280;13517;59.320;18.042;2024-02-21T11:36:49;99838.91;;;4.11;100.00
25658;BME280;13517;59.320;18.042;2024-02-21T11:39:23;99830.72;;;4.14;100.00
25658;BME280;13517;59.320;18.042;2024-02-21T11:42:01;99829.00;;;4.13;100.00
25658;BME280;13517;59.320;18.042;2024-02-21T11:44:26;99772.19;;;3.92;100.00
25658;BME280;13517;59.320;18.042;2024-02-21T11:46:52;99802.25;;;4.13;100.00
25658;BME280;13517;59.320;18.042;2024-02-21T11:49:17;99823.84;;;4.26;100.00
25658;BME280;13517;59.320;18.042;2024-02-21T11:51:43;99802.72;;;4.21;100.00
25658;BME280;13517;59.320;18.042;2024-02-21T11:54:08;99813.72;;;4.33;100.00
25658;BME280;13517;59.320;18.042;2024-02-21T11:56:35;99780.50;;;4.03;100.00
25658;BME280;13517;59.320;18.042;2024-02-21T11:59:00;99822.06;;;4.27;100.00
25658;BME280;13517;59.320;18.042;2024-02-21T12:01:26;99829.91;;;4.30;100.00
25658;BME280;13517;59.320;18.042;2024-02-21T12:03:51;99790.94;;;4.08;100.00
25658;BME280;13517;59.320;18.042;2024-02-21T12:06:17;99814.03;;;4.27;100.00
25658;BME280;13517;59.320;18.042;2024-02-21T12:08:46;99819.97;;;4.32;100.00
25658;BME280;13517;59.320;18.042;2024-02-21T12:11:22;99817.16;;;4.35;100.00
25658;BME280;13517;59.320;18.042;2024-02-21T12:16:30;99807.66;;;4.29;100.00
25658;BME280;13517;59.320;18.042;2024-02-21T12:18:59;99799.88;;;4.25;100.00
25658;BME280;13517;59.320;18.042;2024-02-21T12:21:35;99801.63;;;4.26;100.00
25658;BME280;13517;59.320;18.042;2024-02-21T12:24:13;99814.41;;;4.36;100.00
25658;BME280;13517;59.320;18.042;2024-02-21T12:26:40;99808.00;;;4.39;100.00
25658;BME280;13517;59.320;18.042;2024-02-21T12:29:05;99782.72;;;4.29;100.00
25658;BME280;13517;59.320;18.042;2024-02-21T12:31:31;99766.31;;;4.19;100.00
25658;BME280;13517;59.320;18.042;2024-02-21T12:33:56;99811.16;;;4.47;100.00
25658;BME280;13517;59.320;18.042;2024-02-21T12:36:22;99789.22;;;4.41;100.00
25658;BME280;13517;59.320;18.042;2024-02-21T12:38:47;99784.31;;;4.33;100.00
25658;BME280;13517;59.320;18.042;2024-02-21T12:41:14;99809.41;;;4.46;100.00
25658;BME280;13517;59.320;18.042;2024-02-21T12:43:40;99781.97;;;4.27;100.00
25658;BME280;13517;59.320;18.042;2024-02-21T12:46:05;99750.09;;;4.06;100.00
25658;BME280;13517;59.320;18.042;2024-02-21T12:48:33;99783.13;;;4.21;100.00